createdAt,value
2022-08-21T00:01:52.106Z,63.63
2022-08-21T00:04:57.975Z,62.09
2022-08-21T00:08:02.512Z,60.99
2022-08-21T00:11:07.687Z,61.47
2022-08-21T00:14:13.022Z,61.68
2022-08-21T00:17:17.183Z,61.23
2022-08-21T00:20:23.784Z,61.74
2022-08-21T00:23:28.369Z,61.79
2022-08-21T00:26:33.149Z,62.47
2022-08-21T00:29:37.722Z,61.31
2022-08-21T00:32:43.018Z,60.23
2022-08-21T00:35:47.256Z,60.37
2022-08-21T00:38:51.739Z,60.07
2022-08-21T00:41:56.495Z,59.96
2022-08-21T00:45:01.372Z,59.19
2022-08-21T00:48:08.291Z,58.71
2022-08-21T00:51:15.929Z,58.40
2022-08-21T00:54:24.491Z,56.22
2022-08-21T00:57:38.525Z,53.34
2022-08-21T01:00:48.454Z,52.55
2022-08-21T01:03:53.486Z,51.48
2022-08-21T01:06:58.618Z,50.13
2022-08-21T01:10:03.871Z,50.10
2022-08-21T01:13:11.740Z,49.97
2022-08-21T01:16:19.263Z,48.14
2022-08-21T01:19:26.123Z,47.30
2022-08-21T01:22:30.837Z,45.67
2022-08-21T01:25:36.820Z,44.05
2022-08-21T01:28:51.092Z,43.99
2022-08-21T01:31:55.939Z,43.47
2022-08-21T01:35:00.570Z,44.03
2022-08-21T01:38:07.759Z,44.93
2022-08-21T01:41:12.254Z,43.48
2022-08-21T01:44:17.303Z,43.26
2022-08-21T01:47:21.799Z,44.60
2022-08-21T01:50:26.439Z,42.93
2022-08-21T01:53:33.475Z,41.19
2022-08-21T01:56:41.284Z,39.70
2022-08-21T01:59:48.851Z,41.38
2022-08-21T02:02:54.569Z,40.82
2022-08-21T02:05:59.258Z,42.41
2022-08-21T02:09:06.093Z,42.16
2022-08-21T02:12:11.451Z,42.05
2022-08-21T02:15:16.471Z,43.52
2022-08-21T02:18:21.120Z,44.45
2022-08-21T02:21:25.968Z,43.08
2022-08-21T02:24:30.861Z,44.79
2022-08-21T02:27:42.340Z,44.22
2022-08-21T02:30:49.855Z,43.83
2022-08-21T02:33:54.741Z,46.00
2022-08-21T02:36:59.898Z,44.76
2022-08-21T02:40:05.344Z,44.83
2022-08-21T02:43:10.249Z,44.09
2022-08-21T02:46:19.323Z,44.34
2022-08-21T02:49:24.092Z,45.61
2022-08-21T02:52:29.074Z,45.95
2022-08-21T02:55:34.572Z,46.99
2022-08-21T02:58:43.508Z,45.72
2022-08-21T03:01:48.118Z,48.36
2022-08-21T03:04:52.845Z,47.06
2022-08-21T03:07:57.766Z,45.35
2022-08-21T03:11:02.989Z,45.32
2022-08-21T03:14:10.120Z,44.51
2022-08-21T03:17:14.788Z,45.60
2022-08-21T03:20:24.507Z,45.79
2022-08-21T03:23:32.747Z,47.35
2022-08-21T03:26:37.624Z,47.25
2022-08-21T03:29:45.150Z,47.21
2022-08-21T03:32:50.750Z,45.84
2022-08-21T03:36:02.354Z,45.62
2022-08-21T03:39:07.258Z,47.64
2022-08-21T03:42:11.738Z,48.51
2022-08-21T03:45:18.702Z,49.88
2022-08-21T03:48:23.752Z,50.65
2022-08-21T03:51:28.541Z,49.99
2022-08-21T03:54:33.376Z,47.42
2022-08-21T03:57:37.991Z,47.41
2022-08-21T04:00:42.756Z,47.17
2022-08-21T04:03:47.522Z,46.52
2022-08-21T04:06:52.610Z,46.05
2022-08-21T04:09:56.933Z,48.37
2022-08-21T04:13:01.533Z,47.92
2022-08-21T04:16:07.002Z,48.77
2022-08-21T04:19:12.851Z,49.62
2022-08-21T04:22:19.119Z,50.51
2022-08-21T04:25:25.391Z,49.99
2022-08-21T04:28:31.250Z,49.83
2022-08-21T04:31:38.844Z,49.70
2022-08-21T04:34:43.534Z,49.03
2022-08-21T04:37:48.788Z,49.03
2022-08-21T04:40:54.792Z,49.72
2022-08-21T04:43:59.870Z,50.64
2022-08-21T04:47:04.512Z,53.23
2022-08-21T04:50:09.735Z,52.65
2022-08-21T04:53:32.824Z,51.96
2022-08-21T04:57:07.333Z,53.01
2022-08-21T05:00:14.794Z,52.03
2022-08-21T05:03:20.318Z,51.58
2022-08-21T05:06:26.326Z,51.35
2022-08-21T05:09:32.068Z,51.53
2022-08-21T05:12:37.794Z,50.34
2022-08-21T05:15:44.149Z,49.87
2022-08-21T05:18:48.763Z,50.17
2022-08-21T05:21:53.405Z,49.46
2022-08-21T05:25:00.186Z,48.78
2022-08-21T05:28:06.497Z,48.77
2022-08-21T05:31:11.036Z,49.58
2022-08-21T05:34:18.590Z,49.69
2022-08-21T05:37:23.790Z,49.63
2022-08-21T05:40:29.575Z,49.16
2022-08-21T05:43:37.940Z,48.94
2022-08-21T05:46:42.692Z,49.11
2022-08-21T05:49:47.330Z,50.14
2022-08-21T05:52:51.831Z,49.89
2022-08-21T05:56:01.338Z,50.45
2022-08-21T05:59:08.614Z,49.97
2022-08-21T06:02:13.459Z,49.86
2022-08-21T06:05:36.818Z,50.89
2022-08-21T06:08:42.140Z,51.25
2022-08-21T06:11:46.635Z,51.42
2022-08-21T06:14:53.792Z,51.61
2022-08-21T06:17:58.383Z,51.35
2022-08-21T06:21:03.023Z,51.17
2022-08-21T06:24:08.786Z,51.04
2022-08-21T06:27:13.607Z,51.56
2022-08-21T06:30:18.289Z,51.35
2022-08-21T06:33:22.984Z,51.38
2022-08-21T06:36:27.900Z,51.32
2022-08-21T06:39:33.166Z,50.92
2022-08-21T06:42:37.715Z,51.79
2022-08-21T06:45:42.431Z,51.64
2022-08-21T06:48:47.187Z,52.33
2022-08-21T06:51:52.272Z,53.23
2022-08-21T06:54:56.234Z,53.54
2022-08-21T06:58:01.000Z,53.47
2022-08-21T07:01:06.585Z,53.70
2022-08-21T07:04:11.735Z,53.93
2022-08-21T07:07:16.009Z,55.04
2022-08-21T07:10:22.361Z,54.26
2022-08-21T07:13:28.332Z,54.62
2022-08-21T07:16:33.142Z,54.85
2022-08-21T07:19:37.704Z,55.06
2022-08-21T07:22:43.241Z,55.72
2022-08-21T07:25:47.995Z,55.89
2022-08-21T07:28:53.451Z,56.12
2022-08-21T07:31:58.631Z,55.58
2022-08-21T07:35:03.042Z,57.12
2022-08-21T07:38:08.106Z,56.51
2022-08-21T07:41:19.900Z,56.34
2022-08-21T07:44:24.641Z,56.46
2022-08-21T07:47:42.252Z,57.25
2022-08-21T07:50:47.493Z,57.86
2022-08-21T07:53:55.000Z,58.62
2022-08-21T07:56:59.488Z,58.69
2022-08-21T08:00:09.335Z,59.32
2022-08-21T08:03:20.535Z,59.89
2022-08-21T08:06:33.437Z,61.17
2022-08-21T08:09:38.142Z,61.56
2022-08-21T08:12:44.612Z,60.70
2022-08-21T08:15:49.094Z,61.54
2022-08-21T08:18:53.733Z,62.23
2022-08-21T08:21:58.301Z,61.34
2022-08-21T08:25:07.510Z,60.35
2022-08-21T08:28:16.381Z,60.67
2022-08-21T08:31:22.404Z,62.45
2022-08-21T08:34:27.083Z,63.65
2022-08-21T08:37:34.519Z,63.49
2022-08-21T08:40:53.323Z,63.72
2022-08-21T08:44:03.308Z,63.19
2022-08-21T08:47:08.501Z,63.42
2022-08-21T08:50:22.106Z,63.98
2022-08-21T08:53:45.406Z,62.35
2022-08-21T08:56:52.846Z,61.77
2022-08-21T09:00:01.367Z,61.41
2022-08-21T09:03:07.910Z,61.02
2022-08-21T09:06:20.656Z,61.35
2022-08-21T09:09:43.224Z,61.43
2022-08-21T09:13:16.633Z,62.02
2022-08-21T09:16:48.827Z,61.98
2022-08-21T09:20:26.807Z,64.45
2022-08-21T09:23:51.985Z,64.71
2022-08-21T09:27:04.352Z,65.82
2022-08-21T09:30:11.764Z,66.88
2022-08-21T09:33:17.870Z,66.98
2022-08-21T09:36:33.630Z,67.89
2022-08-21T09:39:46.876Z,68.21
2022-08-21T09:43:07.783Z,68.34
2022-08-21T09:46:24.821Z,69.26
2022-08-21T09:49:34.852Z,68.58
2022-08-21T09:52:52.356Z,69.04
2022-08-21T09:56:25.336Z,68.63
2022-08-21T09:59:37.281Z,67.81
2022-08-21T10:02:42.302Z,68.02
2022-08-21T10:06:10.342Z,67.13
2022-08-21T10:09:21.833Z,67.22
2022-08-21T10:12:44.651Z,66.88
2022-08-21T10:16:10.945Z,67.36
2022-08-21T10:19:27.552Z,67.89
2022-08-21T10:22:41.476Z,70.74
2022-08-21T10:26:13.983Z,70.76
2022-08-21T10:29:45.885Z,72.74
2022-08-21T10:33:05.805Z,72.07
2022-08-21T10:36:22.092Z,71.92
2022-08-21T10:39:39.046Z,73.33
2022-08-21T10:43:02.109Z,72.73
2022-08-21T10:46:30.645Z,73.73
2022-08-21T10:49:56.851Z,75.07
2022-08-21T10:53:22.836Z,75.21
2022-08-21T10:56:29.720Z,79.40
2022-08-21T10:59:44.439Z,76.11
2022-08-21T11:02:52.131Z,76.63
2022-08-21T11:06:07.170Z,75.89
2022-08-21T11:09:21.415Z,76.74
2022-08-21T11:12:51.656Z,77.05
2022-08-21T11:15:59.741Z,76.36
2022-08-21T11:19:18.154Z,77.72
2022-08-21T11:22:37.444Z,77.72
2022-08-21T11:26:11.175Z,79.61
2022-08-21T11:29:29.216Z,78.64
2022-08-21T11:33:03.634Z,79.50
2022-08-21T11:36:22.691Z,79.45
2022-08-21T11:39:36.470Z,78.79
2022-08-21T11:42:55.195Z,79.07
2022-08-21T11:46:35.622Z,80.02
2022-08-21T11:50:18.176Z,80.76
2022-08-21T11:53:54.201Z,80.29
2022-08-21T11:57:08.812Z,78.41
2022-08-21T12:00:27.020Z,77.19
2022-08-21T12:03:45.918Z,76.95
2022-08-21T12:06:51.263Z,76.67
2022-08-21T12:09:59.234Z,76.93
2022-08-21T12:13:39.784Z,76.95
2022-08-21T12:16:49.652Z,76.52
2022-08-21T12:20:20.149Z,76.87
2022-08-21T12:23:51.808Z,76.82
2022-08-21T12:27:33.593Z,77.48
2022-08-21T12:30:45.077Z,77.57
2022-08-21T12:34:07.381Z,77.38
2022-08-21T12:37:37.387Z,78.53
2022-08-21T12:41:04.865Z,78.67
2022-08-21T12:44:16.244Z,80.24
2022-08-21T12:47:28.216Z,80.82
2022-08-21T12:50:39.285Z,81.18
2022-08-21T12:53:59.121Z,79.83
2022-08-21T12:57:07.536Z,79.40
2022-08-21T13:00:16.613Z,80.64
2022-08-21T13:03:22.056Z,81.41
2022-08-21T13:06:28.319Z,83.68
2022-08-21T13:09:34.155Z,82.41
2022-08-21T13:12:38.876Z,83.46
2022-08-21T13:15:47.451Z,82.79
2022-08-21T13:19:07.332Z,83.70
2022-08-21T13:22:34.330Z,83.12
2022-08-21T13:25:39.959Z,82.69
2022-08-21T13:28:45.866Z,83.03
2022-08-21T13:32:02.273Z,83.22
2022-08-21T13:35:18.410Z,83.33
2022-08-21T13:38:27.083Z,82.65
2022-08-21T13:41:36.698Z,82.37
2022-08-21T13:44:48.680Z,82.12
2022-08-21T13:47:54.798Z,81.68
2022-08-21T13:51:01.702Z,81.48
2022-08-21T13:54:25.520Z,83.21
2022-08-21T13:57:33.140Z,84.41
2022-08-21T14:00:51.035Z,84.10
2022-08-21T14:03:59.786Z,83.46
2022-08-21T14:07:19.828Z,84.56
2022-08-21T14:10:25.480Z,83.80
2022-08-21T14:13:43.534Z,85.26
2022-08-21T14:16:56.232Z,85.09
2022-08-21T14:20:00.912Z,85.83
2022-08-21T14:23:08.064Z,85.42
2022-08-21T14:26:13.048Z,84.52
2022-08-21T14:29:21.007Z,85.27
2022-08-21T14:32:32.850Z,85.80
2022-08-21T14:35:37.694Z,84.14
2022-08-21T14:38:42.995Z,84.65
2022-08-21T14:41:49.905Z,85.25
2022-08-21T14:44:58.571Z,84.83
2022-08-21T14:48:03.199Z,86.08
2022-08-21T14:51:08.212Z,86.86
2022-08-21T14:54:13.046Z,86.24
2022-08-21T14:57:18.220Z,85.74
2022-08-21T15:00:27.071Z,85.81
2022-08-21T15:03:41.321Z,84.93
2022-08-21T15:06:46.043Z,84.58
2022-08-21T15:09:50.481Z,84.55
2022-08-21T15:12:55.287Z,85.24
2022-08-21T15:16:00.347Z,84.46
2022-08-21T15:19:05.561Z,84.80
2022-08-21T15:22:15.480Z,85.99
2022-08-21T15:25:24.088Z,85.87
2022-08-21T15:28:31.744Z,88.06
2022-08-21T15:31:38.204Z,88.66
2022-08-21T15:34:42.924Z,89.15
2022-08-21T15:37:47.412Z,88.01
2022-08-21T15:40:52.772Z,86.53
2022-08-21T15:43:57.477Z,89.84
2022-08-21T15:47:02.849Z,87.81
2022-08-21T15:50:09.791Z,90.75
2022-08-21T15:53:14.470Z,87.38
2022-08-21T15:56:28.716Z,87.11
2022-08-21T15:59:41.625Z,85.75
2022-08-21T16:02:49.993Z,86.35
2022-08-21T16:05:54.894Z,86.00
2022-08-21T16:08:59.668Z,87.53
2022-08-21T16:12:06.351Z,88.77
2022-08-21T16:15:17.838Z,89.46
2022-08-21T16:18:27.450Z,89.27
2022-08-21T16:21:32.033Z,90.49
2022-08-21T16:24:37.418Z,89.86
2022-08-21T16:27:47.175Z,88.89
2022-08-21T16:30:53.072Z,87.36
2022-08-21T16:33:58.392Z,86.72
2022-08-21T16:37:03.414Z,87.64
2022-08-21T16:40:11.133Z,88.47
2022-08-21T16:43:17.008Z,88.89
2022-08-21T16:46:23.156Z,90.99
2022-08-21T16:49:28.638Z,92.10
2022-08-21T16:52:32.990Z,95.94
2022-08-21T16:55:39.381Z,93.73
2022-08-21T16:58:49.104Z,93.18
2022-08-21T17:01:55.885Z,91.11
2022-08-21T17:05:02.072Z,90.41
2022-08-21T17:08:09.954Z,89.17
2022-08-21T17:11:37.310Z,90.50
2022-08-21T17:14:43.072Z,90.34
2022-08-21T17:17:48.351Z,90.48
2022-08-21T17:20:53.553Z,90.92
2022-08-21T17:23:58.157Z,88.75
2022-08-21T17:27:04.580Z,89.16
2022-08-21T17:30:09.921Z,89.65
2022-08-21T17:33:16.866Z,90.67
2022-08-21T17:36:28.346Z,91.11
2022-08-21T17:39:33.212Z,91.60
2022-08-21T17:42:38.233Z,91.88
2022-08-21T17:45:44.857Z,91.10
2022-08-21T17:48:49.332Z,90.73
2022-08-21T17:51:53.878Z,91.25
2022-08-21T17:54:58.515Z,90.45
2022-08-21T17:58:04.514Z,90.26
2022-08-21T18:01:09.133Z,89.34
2022-08-21T18:04:14.146Z,90.16
2022-08-21T18:07:31.931Z,90.32
2022-08-21T18:10:40.087Z,91.00
2022-08-21T18:13:44.831Z,91.77
2022-08-21T18:16:50.922Z,92.94
2022-08-21T18:19:55.854Z,91.56
2022-08-21T18:23:00.925Z,91.11
2022-08-21T18:26:06.812Z,89.69
2022-08-21T18:29:13.934Z,88.85
2022-08-21T18:32:30.632Z,88.39
2022-08-21T18:35:36.823Z,88.34
2022-08-21T18:38:42.316Z,88.03
2022-08-21T18:41:48.402Z,88.08
2022-08-21T18:44:56.083Z,87.81
2022-08-21T18:48:02.765Z,87.68
2022-08-21T18:51:07.821Z,87.21
2022-08-21T18:54:12.989Z,88.11
2022-08-21T18:57:17.825Z,87.73
2022-08-21T19:00:27.242Z,87.54
2022-08-21T19:03:31.864Z,87.54
2022-08-21T19:06:37.959Z,87.42
2022-08-21T19:09:52.669Z,87.29
2022-08-21T19:13:07.391Z,87.76
2022-08-21T19:16:12.216Z,87.53
2022-08-21T19:19:19.038Z,88.52
2022-08-21T19:22:25.109Z,88.49
2022-08-21T19:25:33.533Z,88.19
2022-08-21T19:28:46.911Z,87.88
2022-08-21T19:31:51.671Z,88.19
2022-08-21T19:34:56.712Z,88.29
2022-08-21T19:38:02.736Z,88.97
2022-08-21T19:41:13.622Z,90.18
2022-08-21T19:44:22.599Z,90.01
2022-08-21T19:47:29.658Z,90.13
2022-08-21T19:50:34.478Z,89.85
2022-08-21T19:53:39.259Z,89.09
2022-08-21T19:56:44.590Z,89.08
2022-08-21T19:59:49.335Z,89.32
2022-08-21T20:02:54.243Z,89.58
2022-08-21T20:05:58.852Z,89.32
2022-08-21T20:09:08.490Z,89.07
2022-08-21T20:12:16.342Z,90.12
2022-08-21T20:15:22.955Z,89.43
2022-08-21T20:18:28.073Z,89.53
2022-08-21T20:25:00.447Z,89.56
2022-08-21T20:28:06.180Z,89.33
2022-08-21T20:31:14.663Z,88.38
2022-08-21T20:34:19.820Z,88.10
2022-08-21T20:37:36.258Z,87.84
2022-08-21T20:40:51.944Z,87.46
2022-08-21T20:43:58.852Z,87.77
2022-08-21T20:47:09.208Z,88.57
2022-08-21T20:50:18.866Z,88.25
2022-08-21T20:54:01.299Z,87.74
2022-08-21T20:57:24.814Z,86.97
2022-08-21T21:00:34.118Z,87.24
2022-08-21T21:03:46.560Z,87.52
2022-08-21T21:06:56.922Z,86.96
2022-08-21T21:10:07.265Z,86.55
2022-08-21T21:13:45.150Z,86.45
2022-08-21T21:16:59.489Z,86.56
2022-08-21T21:20:11.678Z,86.33
2022-08-21T21:23:33.599Z,86.28
2022-08-21T21:26:46.228Z,85.71
2022-08-21T21:30:00.663Z,85.95
2022-08-21T21:33:07.619Z,84.75
2022-08-21T21:36:30.307Z,85.19
2022-08-21T21:39:57.770Z,85.15
2022-08-21T21:43:36.121Z,84.85
2022-08-21T21:46:53.944Z,84.20
2022-08-21T21:50:31.860Z,83.30
2022-08-21T21:53:57.124Z,81.99
2022-08-21T21:57:04.534Z,82.28
2022-08-21T22:00:20.751Z,82.14
2022-08-21T22:03:51.875Z,81.96
2022-08-21T22:07:03.775Z,81.49
2022-08-21T22:10:43.214Z,81.14
2022-08-21T22:13:54.195Z,81.02
2022-08-21T22:17:07.678Z,81.11
2022-08-21T22:20:32.852Z,80.77
2022-08-21T22:23:50.656Z,81.36
2022-08-21T22:27:03.990Z,81.43
2022-08-21T22:30:14.652Z,81.70
2022-08-21T22:33:26.035Z,81.77
2022-08-21T22:36:36.570Z,81.62
2022-08-21T22:39:46.334Z,81.25
2022-08-21T22:43:07.261Z,81.24
2022-08-21T22:46:12.784Z,81.35
2022-08-21T22:49:47.790Z,80.88
2022-08-21T22:52:58.173Z,80.47
2022-08-21T22:56:05.967Z,80.64
2022-08-21T22:59:26.712Z,80.25
2022-08-21T23:02:39.916Z,79.98
2022-08-21T23:05:45.192Z,80.03
2022-08-21T23:08:50.412Z,80.39
2022-08-21T23:11:57.122Z,80.18
2022-08-21T23:15:08.207Z,80.57
2022-08-21T23:18:19.654Z,80.44
2022-08-21T23:21:24.244Z,80.83
2022-08-21T23:24:34.746Z,80.80
2022-08-21T23:27:55.546Z,80.83
2022-08-21T23:31:22.781Z,80.51
2022-08-21T23:34:44.224Z,80.78
2022-08-21T23:38:09.389Z,80.25
2022-08-21T23:41:36.356Z,80.60
2022-08-21T23:44:53.589Z,80.50
2022-08-21T23:48:11.484Z,80.86
2022-08-21T23:51:45.613Z,81.10
2022-08-21T23:55:13.502Z,80.80
2022-08-21T23:58:46.699Z,80.27
